createdAt,value
2018-10-21T00:00:21.794Z,0.00
2018-10-21T00:01:21.803Z,0.00
2018-10-21T00:02:21.895Z,0.00
2018-10-21T00:03:21.836Z,0.00
2018-10-21T00:04:21.853Z,0.00
2018-10-21T00:05:21.868Z,0.00
2018-10-21T00:06:21.883Z,0.00
2018-10-21T00:07:21.903Z,0.00
2018-10-21T00:08:21.916Z,0.00
2018-10-21T00:09:21.931Z,0.00
2018-10-21T00:10:21.957Z,0.00
2018-10-21T00:11:22.049Z,0.00
2018-10-21T00:12:21.974Z,0.00
2018-10-21T00:13:21.994Z,0.00
2018-10-21T00:14:22.010Z,0.00
2018-10-21T00:15:22.162Z,0.00
2018-10-21T00:16:22.045Z,0.00
2018-10-21T00:17:22.068Z,0.00
2018-10-21T00:18:22.070Z,0.00
2018-10-21T00:19:22.087Z,0.00
2018-10-21T00:20:22.103Z,0.00
2018-10-21T00:21:22.121Z,0.00
2018-10-21T00:22:22.134Z,0.00
2018-10-21T00:23:22.145Z,0.00
2018-10-21T00:24:22.163Z,0.00
2018-10-21T00:25:22.180Z,0.00
2018-10-21T00:26:22.200Z,0.00
2018-10-21T00:27:22.212Z,0.00
2018-10-21T00:28:22.229Z,0.00
2018-10-21T00:29:22.241Z,0.00
2018-10-21T00:30:22.257Z,0.00
2018-10-21T00:31:22.272Z,0.00
2018-10-21T00:32:22.300Z,0.00
2018-10-21T00:33:22.307Z,0.00
2018-10-21T00:34:22.316Z,0.00
2018-10-21T00:35:22.335Z,0.00
2018-10-21T00:36:22.357Z,0.00
2018-10-21T00:37:22.365Z,0.00
2018-10-21T00:38:22.381Z,0.00
2018-10-21T00:39:22.398Z,0.00
2018-10-21T00:40:22.413Z,0.00
2018-10-21T00:41:22.455Z,0.00
2018-10-21T00:42:22.448Z,0.00
2018-10-21T00:43:22.460Z,0.00
2018-10-21T00:44:22.472Z,0.00
2018-10-21T00:45:22.503Z,0.00
2018-10-21T00:46:22.509Z,0.00
2018-10-21T00:47:22.527Z,0.00
2018-10-21T00:48:22.541Z,0.00
2018-10-21T00:49:22.554Z,0.00
2018-10-21T00:50:22.567Z,0.00
2018-10-21T00:51:22.585Z,0.00
2018-10-21T00:52:22.603Z,0.00
2018-10-21T00:53:22.622Z,0.00
2018-10-21T00:54:22.641Z,0.00
2018-10-21T00:55:22.668Z,0.00
2018-10-21T00:56:22.682Z,0.00
2018-10-21T00:57:22.678Z,0.00
2018-10-21T00:58:22.718Z,0.00
2018-10-21T00:59:22.714Z,0.00
2018-10-21T01:00:22.752Z,0.00
2018-10-21T01:01:22.755Z,0.00
2018-10-21T01:02:22.759Z,0.00
2018-10-21T01:03:22.792Z,0.00
2018-10-21T01:04:22.791Z,0.00
2018-10-21T01:05:22.811Z,0.00
2018-10-21T01:06:22.819Z,0.00
2018-10-21T01:07:22.835Z,0.00
2018-10-21T01:08:22.851Z,0.00
2018-10-21T01:09:22.868Z,0.00
2018-10-21T01:10:22.889Z,0.00
2018-10-21T01:11:22.897Z,0.00
2018-10-21T01:12:22.915Z,0.00
2018-10-21T01:13:22.936Z,0.00
2018-10-21T01:14:22.946Z,0.00
2018-10-21T01:15:22.960Z,0.00
2018-10-21T01:16:22.971Z,0.00
2018-10-21T01:17:22.991Z,0.00
2018-10-21T01:18:23.027Z,0.00
2018-10-21T01:19:23.021Z,0.00
2018-10-21T01:20:23.037Z,0.00
2018-10-21T01:21:23.055Z,0.00
2018-10-21T01:22:23.070Z,0.00
2018-10-21T01:23:23.084Z,0.00
2018-10-21T01:24:23.100Z,0.00
2018-10-21T01:25:23.120Z,0.00
2018-10-21T01:26:23.132Z,0.00
2018-10-21T01:27:23.155Z,0.00
2018-10-21T01:28:23.166Z,0.00
2018-10-21T01:29:23.184Z,0.00
2018-10-21T01:30:23.204Z,0.00
2018-10-21T01:31:23.218Z,0.00
2018-10-21T01:32:23.232Z,0.00
2018-10-21T01:33:23.239Z,0.00
2018-10-21T01:34:23.263Z,0.00
2018-10-21T01:35:23.278Z,0.00
2018-10-21T01:36:23.460Z,0.00
2018-10-21T01:37:23.323Z,0.00
2018-10-21T01:38:23.364Z,0.00
2018-10-21T01:39:23.336Z,0.00
2018-10-21T01:40:23.354Z,0.00
2018-10-21T01:41:23.369Z,0.00
2018-10-21T01:42:23.380Z,0.00
2018-10-21T01:43:23.398Z,0.00
2018-10-21T01:44:23.410Z,0.00
2018-10-21T01:45:23.427Z,0.00
2018-10-21T01:46:23.447Z,0.00
2018-10-21T01:47:23.460Z,0.00
2018-10-21T01:48:23.483Z,0.00
2018-10-21T01:49:23.499Z,0.00
2018-10-21T01:50:23.505Z,0.00
2018-10-21T01:51:23.520Z,0.00
2018-10-21T01:52:23.567Z,0.00
2018-10-21T01:53:23.552Z,0.00
2018-10-21T01:54:23.568Z,0.00
2018-10-21T01:55:23.583Z,0.00
2018-10-21T01:56:23.594Z,0.00
2018-10-21T01:57:23.612Z,0.00
2018-10-21T01:58:23.631Z,0.00
2018-10-21T01:59:23.647Z,0.00
2018-10-21T02:00:23.664Z,0.00
2018-10-21T02:01:23.674Z,0.00
2018-10-21T02:02:23.687Z,0.00
2018-10-21T02:03:23.706Z,0.00
2018-10-21T02:04:23.724Z,0.00
2018-10-21T02:05:23.734Z,0.00
2018-10-21T02:06:23.756Z,0.00
2018-10-21T02:07:23.771Z,0.00
2018-10-21T02:08:23.785Z,0.00
2018-10-21T02:09:23.796Z,0.00
2018-10-21T02:10:23.812Z,0.00
2018-10-21T02:11:23.838Z,0.00
2018-10-21T02:12:23.844Z,0.00
2018-10-21T02:13:23.861Z,0.00
2018-10-21T02:14:23.879Z,0.00
2018-10-21T02:15:23.890Z,0.00
2018-10-21T02:16:23.916Z,0.00
2018-10-21T02:17:23.928Z,0.00
2018-10-21T02:18:23.937Z,0.00
2018-10-21T02:19:23.952Z,0.00
2018-10-21T02:20:23.968Z,0.00
2018-10-21T02:21:23.986Z,0.00
2018-10-21T02:22:23.997Z,0.00
2018-10-21T02:23:24.020Z,0.00
2018-10-21T02:24:24.038Z,0.00
2018-10-21T02:25:24.055Z,0.00
2018-10-21T02:26:24.130Z,0.00
2018-10-21T02:27:24.117Z,0.00
2018-10-21T02:28:24.104Z,0.00
2018-10-21T02:29:24.116Z,0.00
2018-10-21T02:30:24.136Z,0.00
2018-10-21T02:31:24.151Z,0.00
2018-10-21T02:32:24.157Z,0.00
2018-10-21T02:33:24.323Z,0.00
2018-10-21T02:34:24.192Z,0.00
2018-10-21T02:35:24.255Z,0.00
2018-10-21T02:36:24.220Z,0.00
2018-10-21T02:37:24.233Z,0.00
2018-10-21T02:38:24.264Z,0.00
2018-10-21T02:39:24.301Z,0.00
2018-10-21T02:40:24.281Z,0.00
2018-10-21T02:41:24.292Z,0.00
2018-10-21T02:42:24.317Z,0.00
2018-10-21T02:43:24.326Z,0.00
2018-10-21T02:44:24.346Z,0.00
2018-10-21T02:45:24.360Z,0.00
2018-10-21T02:46:24.372Z,0.00
2018-10-21T02:47:24.388Z,0.00
2018-10-21T02:48:24.402Z,0.00
2018-10-21T02:49:24.419Z,0.00
2018-10-21T02:50:24.443Z,0.00
2018-10-21T02:51:24.456Z,0.00
2018-10-21T02:52:24.467Z,0.00
2018-10-21T02:53:24.516Z,0.00
2018-10-21T02:54:24.500Z,0.00
2018-10-21T02:55:24.508Z,0.00
2018-10-21T02:56:24.540Z,0.00
2018-10-21T02:57:24.543Z,0.00
2018-10-21T02:58:24.562Z,0.00
2018-10-21T02:59:24.569Z,0.00
2018-10-21T03:00:24.593Z,0.00
2018-10-21T03:01:24.603Z,0.00
2018-10-21T03:02:24.617Z,0.00
2018-10-21T03:03:24.639Z,0.00
2018-10-21T03:04:24.652Z,0.00
2018-10-21T03:05:24.666Z,0.00
2018-10-21T03:06:24.680Z,0.00
2018-10-21T03:07:24.698Z,0.00
2018-10-21T03:08:24.712Z,0.00
2018-10-21T03:09:24.731Z,0.00
2018-10-21T03:10:24.743Z,0.00
2018-10-21T03:11:24.768Z,0.00
2018-10-21T03:12:24.781Z,0.00
2018-10-21T03:13:24.793Z,0.00
2018-10-21T03:14:24.805Z,0.00
2018-10-21T03:15:24.817Z,0.00
2018-10-21T03:16:24.852Z,0.00
2018-10-21T03:17:24.852Z,0.00
2018-10-21T03:18:24.915Z,0.00
2018-10-21T03:19:24.888Z,0.00
2018-10-21T03:20:24.904Z,0.00
2018-10-21T03:21:24.914Z,0.00
2018-10-21T03:22:24.931Z,0.00
2018-10-21T03:23:24.946Z,0.00
2018-10-21T03:24:24.957Z,0.00
2018-10-21T03:25:24.975Z,0.00
2018-10-21T03:26:24.994Z,0.00
2018-10-21T03:27:25.005Z,0.00
2018-10-21T03:28:25.018Z,0.00
2018-10-21T03:29:25.038Z,0.00
2018-10-21T03:30:25.059Z,0.00
2018-10-21T03:31:25.079Z,0.00
2018-10-21T03:32:25.081Z,0.00
2018-10-21T03:33:25.302Z,0.00
2018-10-21T03:34:25.115Z,0.00
2018-10-21T03:35:25.124Z,0.00
2018-10-21T03:36:25.161Z,0.00
2018-10-21T03:37:25.165Z,0.00
2018-10-21T03:38:25.172Z,0.00
2018-10-21T03:39:25.193Z,0.00
2018-10-21T03:40:25.207Z,0.00
2018-10-21T03:41:25.229Z,0.00
2018-10-21T03:42:25.239Z,0.00
2018-10-21T03:43:25.253Z,0.00
2018-10-21T03:44:25.268Z,0.00
2018-10-21T03:45:25.278Z,0.00
2018-10-21T03:46:25.296Z,0.00
2018-10-21T03:47:25.311Z,0.00
2018-10-21T03:48:25.327Z,0.00
2018-10-21T03:49:25.349Z,0.00
2018-10-21T03:50:25.358Z,0.00
2018-10-21T03:51:25.373Z,0.00
2018-10-21T03:52:25.405Z,0.00
2018-10-21T03:53:25.405Z,0.00
2018-10-21T03:54:25.424Z,0.00
2018-10-21T03:55:25.434Z,0.00
2018-10-21T03:56:25.444Z,0.00
2018-10-21T03:57:25.466Z,0.00
2018-10-21T03:58:25.480Z,0.00
2018-10-21T03:59:25.493Z,0.00
2018-10-21T04:00:25.524Z,0.00
2018-10-21T04:01:25.521Z,0.00
2018-10-21T04:02:25.544Z,0.00
2018-10-21T04:03:25.551Z,0.00
2018-10-21T04:04:25.567Z,0.00
2018-10-21T04:05:25.587Z,0.00
2018-10-21T04:06:25.602Z,0.00
2018-10-21T04:07:25.611Z,0.00
2018-10-21T04:08:25.630Z,0.00
2018-10-21T04:09:25.644Z,0.00
2018-10-21T04:10:25.667Z,0.00
2018-10-21T04:11:25.676Z,0.00
2018-10-21T04:12:25.691Z,0.00
2018-10-21T04:13:25.704Z,0.00
2018-10-21T04:14:25.719Z,0.00
2018-10-21T04:15:25.731Z,0.00
2018-10-21T04:16:25.747Z,0.00
2018-10-21T04:17:25.771Z,0.00
2018-10-21T04:18:25.779Z,0.00
2018-10-21T04:19:25.792Z,0.00
2018-10-21T04:20:25.815Z,0.00
2018-10-21T04:21:25.847Z,0.00
2018-10-21T04:22:25.848Z,0.00
2018-10-21T04:23:25.855Z,0.00
2018-10-21T04:24:25.869Z,0.00
2018-10-21T04:25:25.896Z,0.00
2018-10-21T04:26:25.902Z,0.00
2018-10-21T04:27:25.919Z,0.00
2018-10-21T04:28:25.931Z,0.00
2018-10-21T04:29:25.946Z,0.00
2018-10-21T04:30:25.960Z,0.00
2018-10-21T04:31:25.981Z,0.00
2018-10-21T04:32:25.995Z,0.00
2018-10-21T04:33:26.007Z,0.00
2018-10-21T04:34:26.033Z,0.00
2018-10-21T04:35:26.095Z,0.00
2018-10-21T04:36:26.053Z,0.00
2018-10-21T04:37:26.072Z,0.00
2018-10-21T04:38:26.089Z,0.00
2018-10-21T04:39:26.100Z,0.00
2018-10-21T04:40:26.115Z,0.00
2018-10-21T04:41:26.131Z,0.00
2018-10-21T04:42:26.154Z,0.00
2018-10-21T04:43:26.161Z,0.00
2018-10-21T04:44:26.177Z,0.00
2018-10-21T04:45:26.189Z,0.00
2018-10-21T04:46:26.215Z,0.00
2018-10-21T04:47:26.220Z,0.00
2018-10-21T04:48:26.233Z,0.00
2018-10-21T04:49:26.244Z,0.00
2018-10-21T04:50:26.262Z,0.00
2018-10-21T04:51:26.274Z,0.00
2018-10-21T04:52:26.289Z,0.00
2018-10-21T04:53:26.304Z,0.00
2018-10-21T04:54:26.320Z,0.00
2018-10-21T04:55:26.349Z,0.00
2018-10-21T04:56:26.353Z,0.00
2018-10-21T04:57:26.371Z,0.00
2018-10-21T04:58:26.382Z,0.00
2018-10-21T04:59:26.394Z,0.00
2018-10-21T05:00:26.415Z,0.00
2018-10-21T05:01:26.420Z,0.00
2018-10-21T05:02:26.448Z,0.00
2018-10-21T05:03:26.450Z,0.00
2018-10-21T05:04:26.468Z,0.00
2018-10-21T05:05:26.485Z,0.00
2018-10-21T05:06:26.500Z,0.00
2018-10-21T05:07:26.569Z,0.00
2018-10-21T05:08:26.535Z,0.00
2018-10-21T05:09:26.540Z,0.00
2018-10-21T05:10:26.560Z,0.00
2018-10-21T05:11:26.596Z,0.00
2018-10-21T05:12:26.586Z,0.00
2018-10-21T05:13:26.615Z,0.00
2018-10-21T05:14:26.616Z,0.00
2018-10-21T05:15:26.631Z,0.00
2018-10-21T05:16:26.740Z,0.00
2018-10-21T05:17:26.659Z,0.00
2018-10-21T05:18:26.676Z,0.00
2018-10-21T05:19:26.691Z,0.00
2018-10-21T05:20:26.701Z,0.00
2018-10-21T05:21:26.721Z,0.00
2018-10-21T05:22:26.738Z,0.00
2018-10-21T05:23:26.745Z,0.00
2018-10-21T05:24:26.762Z,0.00
2018-10-21T05:25:26.780Z,0.00
2018-10-21T05:26:26.802Z,0.00
2018-10-21T05:27:26.804Z,0.00
2018-10-21T05:28:26.826Z,0.00
2018-10-21T05:29:26.855Z,0.00
2018-10-21T05:30:26.848Z,0.00
2018-10-21T05:31:26.865Z,0.00
2018-10-21T05:32:26.880Z,0.00
2018-10-21T05:33:26.898Z,0.00
2018-10-21T05:34:26.945Z,0.00
2018-10-21T05:35:26.932Z,0.00
2018-10-21T05:36:26.938Z,0.00
2018-10-21T05:37:26.954Z,0.00
2018-10-21T05:38:26.986Z,0.00
2018-10-21T05:39:26.982Z,0.00
2018-10-21T05:40:27.035Z,0.00
2018-10-21T05:41:27.017Z,0.00
2018-10-21T05:42:27.045Z,0.00
2018-10-21T05:43:27.049Z,0.00
2018-10-21T05:44:27.061Z,0.00
2018-10-21T05:45:27.077Z,0.00
2018-10-21T05:46:27.091Z,0.00
2018-10-21T05:47:27.103Z,5.63
2018-10-21T05:48:27.116Z,5.63
2018-10-21T05:49:27.132Z,5.63
2018-10-21T05:50:27.152Z,5.63
2018-10-21T05:51:27.163Z,5.63
2018-10-21T05:52:27.177Z,5.63
2018-10-21T05:53:27.198Z,5.63
2018-10-21T05:54:27.212Z,11.25
2018-10-21T05:55:27.221Z,11.25
2018-10-21T05:56:27.252Z,11.25
2018-10-21T05:57:27.251Z,11.25
2018-10-21T05:58:27.271Z,11.25
2018-10-21T05:59:27.274Z,16.88
2018-10-21T06:00:27.289Z,16.88
2018-10-21T06:01:27.322Z,16.88
2018-10-21T06:02:27.327Z,16.88
2018-10-21T06:03:27.338Z,22.50
2018-10-21T06:04:27.374Z,22.50
2018-10-21T06:05:27.374Z,22.50
2018-10-21T06:06:27.380Z,22.50
2018-10-21T06:07:27.392Z,28.13
2018-10-21T06:08:27.420Z,28.13
2018-10-21T06:09:27.432Z,28.13
2018-10-21T06:10:27.443Z,33.75
2018-10-21T06:11:27.459Z,33.75
2018-10-21T06:12:27.475Z,33.75
2018-10-21T06:13:27.481Z,39.38
2018-10-21T06:14:27.496Z,39.38
2018-10-21T06:15:27.511Z,39.38
2018-10-21T06:16:27.527Z,39.38
2018-10-21T06:17:27.546Z,39.38
2018-10-21T06:18:27.556Z,45.00
2018-10-21T06:19:27.569Z,45.00
2018-10-21T06:20:27.597Z,45.00
2018-10-21T06:21:27.598Z,50.63
2018-10-21T06:22:27.610Z,50.63
2018-10-21T06:23:27.627Z,56.25
2018-10-21T06:24:27.641Z,56.25
2018-10-21T06:25:27.659Z,61.88
2018-10-21T06:26:27.673Z,67.50
2018-10-21T06:27:27.738Z,67.50
2018-10-21T06:28:27.697Z,73.13
2018-10-21T06:29:27.718Z,78.75
2018-10-21T06:30:27.733Z,78.75
2018-10-21T06:31:27.745Z,84.38
2018-10-21T06:32:27.757Z,84.38
2018-10-21T06:33:27.824Z,90.00
2018-10-21T06:34:27.786Z,90.00
2018-10-21T06:35:27.801Z,90.00
2018-10-21T06:36:27.818Z,95.63
2018-10-21T06:37:27.924Z,101.25
2018-10-21T06:38:27.847Z,101.25
2018-10-21T06:39:27.886Z,101.25
2018-10-21T06:40:27.890Z,101.25
2018-10-21T06:41:27.893Z,101.25
2018-10-21T06:42:27.920Z,101.25
2018-10-21T06:43:27.923Z,95.63
2018-10-21T06:44:27.936Z,101.25
2018-10-21T06:45:28.081Z,101.25
2018-10-21T06:46:27.976Z,95.63
2018-10-21T06:47:27.992Z,101.25
2018-10-21T06:48:28.026Z,101.25
2018-10-21T06:49:28.009Z,101.25
2018-10-21T06:50:28.026Z,106.88
2018-10-21T06:51:28.050Z,106.88
2018-10-21T06:52:28.065Z,101.25
2018-10-21T06:53:28.073Z,95.63
2018-10-21T06:54:28.094Z,95.63
2018-10-21T06:55:28.104Z,90.00
2018-10-21T06:56:28.235Z,90.00
2018-10-21T06:57:28.202Z,90.00
2018-10-21T06:58:28.147Z,84.38
2018-10-21T06:59:28.160Z,90.00
2018-10-21T07:00:28.174Z,95.63
2018-10-21T07:01:28.186Z,90.00
2018-10-21T07:02:28.203Z,84.38
2018-10-21T07:03:28.220Z,84.38
2018-10-21T07:04:28.266Z,84.38
2018-10-21T07:05:28.258Z,84.38
2018-10-21T07:06:28.269Z,78.75
2018-10-21T07:07:28.280Z,78.75
2018-10-21T07:08:28.292Z,78.75
2018-10-21T07:09:28.315Z,78.75
2018-10-21T07:10:28.324Z,78.75
2018-10-21T07:11:28.341Z,84.38
2018-10-21T07:12:28.355Z,84.38
2018-10-21T07:13:28.371Z,84.38
2018-10-21T07:14:28.397Z,90.00
2018-10-21T07:15:28.436Z,90.00
2018-10-21T07:16:28.497Z,95.63
2018-10-21T07:17:28.436Z,101.25
2018-10-21T07:18:28.444Z,101.25
2018-10-21T07:19:28.460Z,101.25
2018-10-21T07:20:28.477Z,101.25
2018-10-21T07:21:28.487Z,106.88
2018-10-21T07:22:28.517Z,101.25
2018-10-21T07:23:28.524Z,101.25
2018-10-21T07:24:28.540Z,101.25
2018-10-21T07:25:28.556Z,106.88
2018-10-21T07:26:28.578Z,112.50
2018-10-21T07:27:28.592Z,112.50
2018-10-21T07:28:28.608Z,112.50
2018-10-21T07:29:28.628Z,112.50
2018-10-21T07:30:28.631Z,118.13
2018-10-21T07:31:28.655Z,135.00
2018-10-21T07:32:28.656Z,135.00
2018-10-21T07:33:28.678Z,135.00
2018-10-21T07:34:28.693Z,140.63
2018-10-21T07:35:28.709Z,146.25
2018-10-21T07:36:28.830Z,146.25
2018-10-21T07:37:28.732Z,146.25
2018-10-21T07:38:28.758Z,146.25
2018-10-21T07:39:28.766Z,146.25
2018-10-21T07:40:28.794Z,157.50
2018-10-21T07:41:28.810Z,168.75
2018-10-21T07:42:28.818Z,163.13
2018-10-21T07:43:28.833Z,168.75
2018-10-21T07:44:28.843Z,151.88
2018-10-21T07:45:28.860Z,146.25
2018-10-21T07:46:28.876Z,151.88
2018-10-21T07:47:28.892Z,174.38
2018-10-21T07:48:28.903Z,185.63
2018-10-21T07:49:28.919Z,191.25
2018-10-21T07:50:29.688Z,196.88
2018-10-21T07:51:29.072Z,202.50
2018-10-21T07:52:28.971Z,219.38
2018-10-21T07:53:28.984Z,225.00
2018-10-21T07:54:28.998Z,230.63
2018-10-21T07:55:29.017Z,236.25
2018-10-21T07:56:29.030Z,236.25
2018-10-21T07:57:29.045Z,236.25
2018-10-21T07:58:29.060Z,236.25
2018-10-21T07:59:29.078Z,241.88
2018-10-21T08:00:29.107Z,247.50
2018-10-21T08:01:29.181Z,258.75
2018-10-21T08:02:29.142Z,264.38
2018-10-21T08:03:29.140Z,264.38
2018-10-21T08:04:29.156Z,264.38
2018-10-21T08:05:29.172Z,264.38
2018-10-21T08:06:29.220Z,270.00
2018-10-21T08:07:29.204Z,264.38
2018-10-21T08:08:29.225Z,264.38
2018-10-21T08:09:29.242Z,264.38
2018-10-21T08:10:29.249Z,264.38
2018-10-21T08:11:29.264Z,258.75
2018-10-21T08:12:29.282Z,253.13
2018-10-21T08:13:29.308Z,253.13
2018-10-21T08:14:29.350Z,264.38
2018-10-21T08:15:29.339Z,275.63
2018-10-21T08:16:29.351Z,286.88
2018-10-21T08:17:29.391Z,303.75
2018-10-21T08:18:29.381Z,315.00
2018-10-21T08:19:29.398Z,315.00
2018-10-21T08:20:29.418Z,309.38
2018-10-21T08:21:29.426Z,298.13
2018-10-21T08:22:29.445Z,292.50
2018-10-21T08:23:29.459Z,286.88
2018-10-21T08:24:29.478Z,286.88
2018-10-21T08:25:29.496Z,286.88
2018-10-21T08:26:29.522Z,286.88
2018-10-21T08:27:29.545Z,281.25
2018-10-21T08:28:29.545Z,281.25
2018-10-21T08:29:29.560Z,281.25
2018-10-21T08:30:29.576Z,281.25
2018-10-21T08:31:29.596Z,286.88
2018-10-21T08:32:29.621Z,286.88
2018-10-21T08:33:29.628Z,292.50
2018-10-21T08:34:29.644Z,292.50
2018-10-21T08:35:29.658Z,292.50
2018-10-21T08:36:29.684Z,298.13
2018-10-21T08:37:29.699Z,303.75
2018-10-21T08:38:29.718Z,309.38
2018-10-21T08:39:29.725Z,309.38
2018-10-21T08:40:29.742Z,309.38
2018-10-21T08:41:29.765Z,315.00
2018-10-21T08:42:29.782Z,320.63
2018-10-21T08:43:29.798Z,320.63
2018-10-21T08:44:29.809Z,320.63
2018-10-21T08:45:29.839Z,320.63
2018-10-21T08:46:29.902Z,326.25
2018-10-21T08:47:29.861Z,326.25
2018-10-21T08:48:29.877Z,320.63
2018-10-21T08:49:29.946Z,326.25
2018-10-21T08:50:29.918Z,315.00
2018-10-21T08:51:29.943Z,315.00
2018-10-21T08:52:29.945Z,309.38
2018-10-21T08:53:29.971Z,309.38
2018-10-21T08:54:29.997Z,309.38
2018-10-21T08:55:30.003Z,309.38
2018-10-21T08:56:30.018Z,315.00
2018-10-21T08:57:30.032Z,320.63
2018-10-21T08:58:30.065Z,320.63
2018-10-21T08:59:30.067Z,320.63
2018-10-21T09:00:30.086Z,320.63
2018-10-21T09:01:30.108Z,315.00
2018-10-21T09:02:30.120Z,309.38
2018-10-21T09:03:30.135Z,309.38
2018-10-21T09:04:30.205Z,309.38
2018-10-21T09:05:30.171Z,309.38
2018-10-21T09:06:30.187Z,315.00
2018-10-21T09:07:30.214Z,320.63
2018-10-21T09:08:30.220Z,326.25
2018-10-21T09:09:30.243Z,331.88
2018-10-21T09:10:30.362Z,331.88
2018-10-21T09:11:30.276Z,337.50
2018-10-21T09:12:30.294Z,337.50
2018-10-21T09:13:30.315Z,343.13
2018-10-21T09:14:30.327Z,343.13
2018-10-21T09:15:30.432Z,343.13
2018-10-21T09:16:30.401Z,348.75
2018-10-21T09:17:30.379Z,348.75
2018-10-21T09:18:30.399Z,343.13
2018-10-21T09:19:30.410Z,343.13
2018-10-21T09:20:30.431Z,337.50
2018-10-21T09:21:30.448Z,337.50
2018-10-21T09:22:30.484Z,331.88
2018-10-21T09:23:30.502Z,331.88
2018-10-21T09:24:30.508Z,337.50
2018-10-21T09:25:30.516Z,337.50
2018-10-21T09:26:30.537Z,331.88
2018-10-21T09:27:30.557Z,331.88
2018-10-21T09:28:30.571Z,331.88
2018-10-21T09:29:30.590Z,337.50
2018-10-21T09:30:30.607Z,343.13
2018-10-21T09:31:30.628Z,354.38
2018-10-21T09:32:30.642Z,354.38
2018-10-21T09:33:30.803Z,354.38
2018-10-21T09:34:30.677Z,354.38
2018-10-21T09:35:30.709Z,360.00
2018-10-21T09:36:30.739Z,365.63
2018-10-21T09:37:30.731Z,371.25
2018-10-21T09:38:30.747Z,371.25
2018-10-21T09:39:30.767Z,365.63
2018-10-21T09:40:30.801Z,365.63
2018-10-21T09:41:30.814Z,371.25
2018-10-21T09:42:30.821Z,376.88
2018-10-21T09:43:30.839Z,376.88
2018-10-21T09:44:30.853Z,382.50
2018-10-21T09:45:30.900Z,388.13
2018-10-21T09:46:30.890Z,388.13
2018-10-21T09:47:30.911Z,388.13
2018-10-21T09:48:30.927Z,388.13
2018-10-21T09:49:30.949Z,382.50
2018-10-21T09:50:30.967Z,382.50
2018-10-21T09:51:30.977Z,388.13
2018-10-21T09:52:30.998Z,382.50
2018-10-21T09:53:31.031Z,382.50
2018-10-21T09:54:31.034Z,382.50
2018-10-21T09:55:31.050Z,382.50
2018-10-21T09:56:31.069Z,388.13
2018-10-21T09:57:31.095Z,393.75
2018-10-21T09:58:31.139Z,393.75
2018-10-21T09:59:31.119Z,388.13
2018-10-21T10:00:31.143Z,382.50
2018-10-21T10:01:31.157Z,382.50
2018-10-21T10:02:31.177Z,382.50
2018-10-21T10:03:31.192Z,393.75
2018-10-21T10:04:31.214Z,399.38
2018-10-21T10:05:31.232Z,410.63
2018-10-21T10:06:31.246Z,416.25
2018-10-21T10:07:31.277Z,416.25
2018-10-21T10:08:31.289Z,388.13
2018-10-21T10:09:31.308Z,354.38
2018-10-21T10:10:31.319Z,315.00
2018-10-21T10:11:31.339Z,298.13
2018-10-21T10:12:31.364Z,286.88
2018-10-21T10:13:31.379Z,292.50
2018-10-21T10:14:31.399Z,292.50
2018-10-21T10:15:31.411Z,292.50
2018-10-21T10:16:31.429Z,292.50
2018-10-21T10:17:31.486Z,292.50
2018-10-21T10:18:31.468Z,286.88
2018-10-21T10:19:31.482Z,292.50
2018-10-21T10:20:31.509Z,286.88
2018-10-21T10:21:31.516Z,275.63
2018-10-21T10:22:31.544Z,281.25
2018-10-21T10:23:31.616Z,303.75
2018-10-21T10:24:31.572Z,326.25
2018-10-21T10:25:31.595Z,354.38
2018-10-21T10:26:31.617Z,354.38
2018-10-21T10:27:31.641Z,360.00
2018-10-21T10:28:31.655Z,365.63
2018-10-21T10:29:31.666Z,376.88
2018-10-21T10:30:31.739Z,371.25
2018-10-21T10:31:31.695Z,365.63
2018-10-21T10:32:31.717Z,354.38
2018-10-21T10:33:31.738Z,354.38
2018-10-21T10:34:31.757Z,348.75
2018-10-21T10:35:31.785Z,348.75
2018-10-21T10:36:31.791Z,348.75
2018-10-21T10:37:31.815Z,348.75
2018-10-21T10:38:31.833Z,343.13
2018-10-21T10:39:31.843Z,326.25
2018-10-21T10:40:31.877Z,315.00
2018-10-21T10:41:31.898Z,309.38
2018-10-21T10:42:31.900Z,298.13
2018-10-21T10:43:31.918Z,309.38
2018-10-21T10:44:31.940Z,303.75
2018-10-21T10:45:31.957Z,315.00
2018-10-21T10:46:31.982Z,326.25
2018-10-21T10:47:31.991Z,326.25
2018-10-21T10:48:32.014Z,331.88
2018-10-21T10:49:32.026Z,348.75
2018-10-21T10:50:32.047Z,343.13
2018-10-21T10:51:32.067Z,331.88
2018-10-21T10:52:32.082Z,326.25
2018-10-21T10:53:32.100Z,320.63
2018-10-21T10:54:32.119Z,309.38
2018-10-21T10:55:32.137Z,309.38
2018-10-21T10:56:32.154Z,309.38
2018-10-21T10:57:32.172Z,303.75
2018-10-21T10:58:32.194Z,298.13
2018-10-21T10:59:32.229Z,281.25
2018-10-21T11:00:32.235Z,275.63
2018-10-21T11:01:32.245Z,275.63
2018-10-21T11:02:32.275Z,258.75
2018-10-21T11:03:32.286Z,258.75
2018-10-21T11:04:32.299Z,253.13
2018-10-21T11:05:32.319Z,241.88
2018-10-21T11:06:32.339Z,247.50
2018-10-21T11:07:32.359Z,253.13
2018-10-21T11:08:32.376Z,241.88
2018-10-21T11:09:32.395Z,258.75
2018-10-21T11:10:32.416Z,241.88
2018-10-21T11:11:32.428Z,264.38
2018-10-21T11:12:32.453Z,258.75
2018-10-21T11:13:32.474Z,264.38
2018-10-21T11:14:32.514Z,258.75
2018-10-21T11:15:32.512Z,258.75
2018-10-21T11:16:32.524Z,253.13
2018-10-21T11:17:32.542Z,253.13
2018-10-21T11:18:32.555Z,253.13
2018-10-21T11:19:32.576Z,253.13
2018-10-21T11:20:32.597Z,247.50
2018-10-21T11:21:32.608Z,247.50
2018-10-21T11:22:32.641Z,247.50
2018-10-21T11:23:32.655Z,247.50
2018-10-21T11:24:32.671Z,247.50
2018-10-21T11:25:32.688Z,247.50
2018-10-21T11:26:32.713Z,247.50
2018-10-21T11:27:32.724Z,247.50
2018-10-21T11:28:32.735Z,247.50
2018-10-21T11:29:32.757Z,247.50
2018-10-21T11:30:32.777Z,247.50
2018-10-21T11:31:32.789Z,247.50
2018-10-21T11:32:32.809Z,247.50
2018-10-21T11:33:32.828Z,247.50
2018-10-21T11:34:32.851Z,247.50
2018-10-21T11:35:32.864Z,247.50
2018-10-21T11:36:32.905Z,247.50
2018-10-21T11:37:33.118Z,247.50
2018-10-21T11:38:32.919Z,247.50
2018-10-21T11:39:32.937Z,247.50
2018-10-21T11:40:32.955Z,247.50
2018-10-21T11:41:32.974Z,247.50
2018-10-21T11:42:32.992Z,247.50
2018-10-21T11:43:33.013Z,247.50
2018-10-21T11:44:33.029Z,247.50
2018-10-21T11:45:33.051Z,247.50
2018-10-21T11:46:33.166Z,247.50
2018-10-21T11:47:33.083Z,247.50
2018-10-21T11:48:33.103Z,247.50
2018-10-21T11:49:33.115Z,247.50
2018-10-21T11:50:33.136Z,247.50
2018-10-21T11:51:33.152Z,247.50
2018-10-21T11:52:33.207Z,241.88
2018-10-21T11:53:33.186Z,241.88
2018-10-21T11:54:33.204Z,241.88
2018-10-21T11:55:33.227Z,241.88
2018-10-21T11:56:33.244Z,241.88
2018-10-21T11:57:33.272Z,241.88
2018-10-21T11:58:33.277Z,241.88
2018-10-21T11:59:33.300Z,241.88
2018-10-21T12:00:33.324Z,241.88
2018-10-21T12:01:33.334Z,241.88
2018-10-21T12:02:33.350Z,241.88
2018-10-21T12:03:33.366Z,241.88
2018-10-21T12:04:33.384Z,241.88
2018-10-21T12:05:33.404Z,241.88
2018-10-21T12:06:33.425Z,241.88
2018-10-21T12:07:33.443Z,241.88
2018-10-21T12:08:33.455Z,241.88
2018-10-21T12:09:33.491Z,241.88
2018-10-21T12:10:33.496Z,241.88
2018-10-21T12:11:34.152Z,241.88
2018-10-21T12:12:33.528Z,241.88
2018-10-21T12:13:33.550Z,241.88
2018-10-21T12:14:33.564Z,241.88
2018-10-21T12:15:33.582Z,241.88
2018-10-21T12:16:33.598Z,241.88
2018-10-21T12:17:33.620Z,241.88
2018-10-21T12:18:33.636Z,241.88
2018-10-21T12:19:33.661Z,241.88
2018-10-21T12:20:33.672Z,241.88
2018-10-21T12:21:33.692Z,241.88
2018-10-21T12:22:33.737Z,236.25
2018-10-21T12:23:33.812Z,236.25
2018-10-21T12:24:33.750Z,236.25
2018-10-21T12:25:33.816Z,236.25
2018-10-21T12:26:33.787Z,236.25
2018-10-21T12:27:33.808Z,236.25
2018-10-21T12:28:33.817Z,236.25
2018-10-21T12:29:33.840Z,236.25
2018-10-21T12:30:33.858Z,230.63
2018-10-21T12:31:33.873Z,236.25
2018-10-21T12:32:33.897Z,236.25
2018-10-21T12:33:34.047Z,236.25
2018-10-21T12:34:33.941Z,236.25
2018-10-21T12:35:33.945Z,236.25
2018-10-21T12:36:33.963Z,236.25
2018-10-21T12:37:33.984Z,236.25
2018-10-21T12:38:34.001Z,241.88
2018-10-21T12:39:34.033Z,236.25
2018-10-21T12:40:34.039Z,236.25
2018-10-21T12:41:34.057Z,236.25
2018-10-21T12:42:34.078Z,241.88
2018-10-21T12:43:34.093Z,241.88
2018-10-21T12:44:34.121Z,241.88
2018-10-21T12:45:34.168Z,241.88
2018-10-21T12:46:34.165Z,247.50
2018-10-21T12:47:34.171Z,241.88
2018-10-21T12:48:34.195Z,241.88
2018-10-21T12:49:34.246Z,241.88
2018-10-21T12:50:34.231Z,241.88
2018-10-21T12:51:34.236Z,241.88
2018-10-21T12:52:34.262Z,241.88